Time;durP1;ratioP1;P1;durP2;ratioP2;P2;SDS_P1;SDS_P2;PMS_P1;PMS_P2;Temp;Humidity;BMP_temperature;BMP_pressure;BME280_temperature;BME280_humidity;BME280_pressure;Samples;Min_cycle;Max_cycle;Signal;HPM_P1;HPM_P2
2022/05/22 00:00:11;;;;;;;29.40;27.50;;;14.70;79.80;;;;;;5083516;28;20469;-72
2022/05/22 00:02:40;;;;;;;28.13;26.23;;;14.70;80.00;;;;;;5071368;28;20561;-72
2022/05/22 00:05:09;;;;;;;28.10;26.50;;;14.70;80.10;;;;;;5076031;28;20482;-71
2022/05/22 00:07:35;;;;;;;27.77;26.07;;;14.70;79.70;;;;;;5082455;28;20481;-77
2022/05/22 00:10:02;;;;;;;27.53;26.03;;;14.60;79.80;;;;;;5084755;28;20469;-71
2022/05/22 00:12:29;;;;;;;27.37;25.77;;;14.40;80.40;;;;;;5078271;28;21315;-74
2022/05/22 00:14:56;;;;;;;27.50;26.00;;;14.30;80.60;;;;;;5077771;28;20476;-74
2022/05/22 00:17:23;;;;;;;27.30;25.80;;;14.30;81.00;;;;;;5075877;28;20462;-72
2022/05/22 00:19:52;;;;;;;27.43;25.73;;;14.20;81.20;;;;;;5082947;28;20986;-73
2022/05/22 00:22:19;;;;;;;26.77;25.20;;;14.20;81.00;;;;;;5079154;28;20454;-72
2022/05/22 00:24:46;;;;;;;26.43;25.00;;;14.10;81.40;;;;;;5067275;28;21030;-74
2022/05/22 00:27:13;;;;;;;25.53;24.23;;;14.10;81.60;;;;;;5074728;28;20468;-72
2022/05/22 00:29:40;;;;;;;25.47;23.87;;;14.00;82.00;;;;;;5082138;28;20466;-69
2022/05/22 00:32:08;;;;;;;25.83;24.50;;;14.00;82.30;;;;;;5075129;28;20491;-69
2022/05/22 00:34:36;;;;;;;25.40;23.90;;;14.00;82.20;;;;;;5069069;28;20508;-72
2022/05/22 00:37:06;;;;;;;26.10;24.70;;;14.00;82.10;;;;;;5078444;28;20457;-71
2022/05/22 00:39:33;;;;;;;26.90;25.30;;;14.00;81.90;;;;;;5084080;28;20461;-71
2022/05/22 00:42:01;;;;;;;25.97;24.57;;;13.90;82.20;;;;;;5070703;28;20462;-73
2022/05/22 00:44:28;;;;;;;25.67;24.30;;;13.90;82.20;;;;;;5082752;28;20535;-73
2022/05/22 00:46:55;;;;;;;26.97;25.27;;;13.90;82.40;;;;;;5077929;28;20458;-74
2022/05/22 00:49:25;;;;;;;27.00;25.40;;;13.90;82.20;;;;;;5073743;28;20484;-72
2022/05/22 00:51:56;;;;;;;26.27;24.83;;;13.80;82.40;;;;;;5091763;28;20464;-72
2022/05/22 00:54:30;;;;;;;27.47;25.97;;;13.80;82.50;;;;;;5087390;28;20473;-71
2022/05/22 00:57:05;;;;;;;26.00;24.50;;;13.80;82.70;;;;;;5077224;28;20455;-71
2022/05/22 00:59:38;;;;;;;27.30;25.80;;;13.70;83.20;;;;;;5084493;28;20823;-73
2022/05/22 01:02:06;;;;;;;26.17;24.87;;;13.60;83.40;;;;;;5073658;28;20455;-69
2022/05/22 01:04:36;;;;;;;26.50;25.03;;;13.60;83.40;;;;;;5084602;28;20950;-70
2022/05/22 01:07:06;;;;;;;26.53;25.13;;;13.60;83.50;;;;;;5070177;28;20461;-71
2022/05/22 01:09:35;;;;;;;26.50;25.00;;;13.60;83.40;;;;;;5076974;28;20469;-71
2022/05/22 01:12:07;;;;;;;26.70;25.00;;;13.60;83.30;;;;;;5082729;28;20463;-71
2022/05/22 01:14:36;;;;;;;25.83;24.33;;;13.60;83.40;;;;;;5080417;28;20488;-71
2022/05/22 01:17:05;;;;;;;26.90;25.40;;;13.50;83.20;;;;;;5081631;28;20544;-71
2022/05/22 01:19:32;;;;;;;27.30;25.60;;;13.50;83.30;;;;;;5082613;28;20511;-72
2022/05/22 01:22:02;;;;;;;25.90;24.60;;;13.50;83.60;;;;;;5073309;28;20817;-74
2022/05/22 01:24:29;;;;;;;26.10;24.60;;;13.40;84.00;;;;;;5070839;28;20480;-73
2022/05/22 01:26:59;;;;;;;26.30;24.70;;;13.40;83.70;;;;;;5068924;28;20465;-73
2022/05/22 01:29:26;;;;;;;26.20;24.53;;;13.30;83.70;;;;;;5073448;28;20469;-71
2022/05/22 01:31:53;;;;;;;26.10;24.70;;;13.00;84.60;;;;;;5078791;28;20540;-71
2022/05/22 01:34:20;;;;;;;26.70;25.10;;;13.00;85.00;;;;;;5094052;28;20486;-70
2022/05/22 01:36:47;;;;;;;27.00;25.50;;;13.00;85.20;;;;;;5087386;28;20958;-71
2022/05/22 01:39:15;;;;;;;25.53;24.13;;;13.10;85.00;;;;;;5092652;28;20464;-71
2022/05/22 01:41:42;;;;;;;24.97;23.77;;;13.10;84.90;;;;;;5076872;28;20469;-70
2022/05/22 01:44:09;;;;;;;26.53;25.13;;;13.20;84.80;;;;;;5077720;28;20480;-69
2022/05/22 01:46:36;;;;;;;26.10;24.70;;;13.20;84.50;;;;;;5084525;28;20977;-69
2022/05/22 01:49:04;;;;;;;26.50;24.87;;;13.30;84.30;;;;;;5077432;28;20488;-69
2022/05/22 01:51:35;;;;;;;26.93;25.43;;;13.30;84.20;;;;;;5074545;28;20960;-70
2022/05/22 01:54:03;;;;;;;26.60;25.17;;;13.20;84.40;;;;;;5075271;28;20449;-70
2022/05/22 01:56:33;;;;;;;26.80;25.40;;;13.30;84.20;;;;;;5084481;28;20450;-71
2022/05/22 01:59:00;;;;;;;26.03;24.70;;;13.30;84.10;;;;;;5083880;28;20485;-69
2022/05/22 02:01:27;;;;;;;26.23;24.73;;;13.30;84.20;;;;;;5075065;28;20454;-69
2022/05/22 02:03:54;;;;;;;25.50;24.10;;;13.30;84.10;;;;;;5076012;28;20453;-70
2022/05/22 02:06:21;;;;;;;25.53;23.93;;;13.30;84.10;;;;;;5078507;28;20469;-70
2022/05/22 02:08:48;;;;;;;26.10;24.70;;;13.40;83.90;;;;;;5081447;28;20561;-69
2022/05/22 02:11:14;;;;;;;24.93;23.60;;;13.40;83.90;;;;;;5079286;28;20540;-70
2022/05/22 02:13:44;;;;;;;24.77;23.47;;;13.40;83.80;;;;;;5078548;28;20478;-70
2022/05/22 02:16:12;;;;;;;25.00;23.70;;;13.50;83.50;;;;;;5076225;28;20515;-70
2022/05/22 02:18:39;;;;;;;26.90;25.40;;;13.50;83.80;;;;;;5085473;28;20486;-70
2022/05/22 02:21:06;;;;;;;25.17;23.63;;;13.40;83.60;;;;;;5085464;28;20464;-69
2022/05/22 02:23:34;;;;;;;25.53;24.23;;;13.50;86.20;;;;;;5087843;28;20473;-72
2022/05/22 02:26:01;;;;;;;25.70;23.90;;;13.60;85.20;;;;;;5084606;28;20834;-71
2022/05/22 02:28:30;;;;;;;25.20;23.80;;;13.60;84.60;;;;;;5087463;28;20477;-72
2022/05/22 02:31:01;;;;;;;25.20;23.80;;;13.70;83.90;;;;;;5085079;28;20459;-72
2022/05/22 02:33:28;;;;;;;25.67;24.27;;;13.80;83.20;;;;;;5073955;28;20466;-73
2022/05/22 02:35:56;;;;;;;26.40;24.90;;;13.90;83.20;;;;;;5076068;28;20469;-73
2022/05/22 02:38:23;;;;;;;25.97;24.57;;;13.90;82.80;;;;;;5097366;28;20956;-71
2022/05/22 02:40:50;;;;;;;27.60;26.00;;;13.90;82.90;;;;;;5077364;28;20466;-72
2022/05/22 02:43:18;;;;;;;26.23;24.83;;;14.00;82.70;;;;;;5081923;28;20985;-72
2022/05/22 02:45:45;;;;;;;27.70;26.10;;;14.00;82.20;;;;;;5092552;28;20502;-71
2022/05/22 02:48:14;;;;;;;27.50;26.00;;;14.00;82.20;;;;;;5087443;28;20537;-74
2022/05/22 02:50:41;;;;;;;27.80;26.10;;;14.00;82.10;;;;;;5077035;28;20461;-71
2022/05/22 02:53:09;;;;;;;27.27;25.37;;;14.00;81.90;;;;;;5077526;28;20454;-72
2022/05/22 02:55:36;;;;;;;26.37;24.87;;;14.00;81.50;;;;;;5071712;28;20578;-73
2022/05/22 02:58:03;;;;;;;27.10;25.70;;;14.00;81.60;;;;;;5088076;28;20537;-71
2022/05/22 03:00:31;;;;;;;26.80;25.30;;;13.90;81.80;;;;;;5075019;28;20469;-72
2022/05/22 03:02:59;;;;;;;28.07;26.57;;;13.90;81.90;;;;;;5070736;28;20833;-74
2022/05/22 03:06:38;;;;;;;26.93;25.50;;;13.90;81.70;;;;;;5073857;28;20556;-72
2022/05/22 03:08:15;;;;;;;27.47;25.40;;;13.90;82.20;;;;;;5078293;28;20452;-73
2022/05/22 03:10:44;;;;;;;26.33;24.93;;;13.90;82.20;;;;;;5079822;28;20507;-70
2022/05/22 03:13:12;;;;;;;26.47;25.07;;;14.00;82.10;;;;;;5082497;28;20454;-71
2022/05/22 03:15:39;;;;;;;26.57;25.17;;;13.90;82.20;;;;;;5085095;28;20992;-70
2022/05/22 03:18:06;;;;;;;27.30;25.80;;;13.90;82.50;;;;;;5097911;28;20448;-70
2022/05/22 03:20:35;;;;;;;27.47;25.87;;;13.90;82.20;;;;;;5088878;28;20577;-70
2022/05/22 03:23:02;;;;;;;26.93;25.53;;;13.90;82.40;;;;;;5072649;28;20471;-70
2022/05/22 03:25:29;;;;;;;26.77;25.17;;;13.90;82.80;;;;;;5075770;28;21089;-70
2022/05/22 03:27:55;;;;;;;26.97;25.47;;;13.90;82.30;;;;;;5095327;28;20800;-70
2022/05/22 03:30:22;;;;;;;27.83;26.13;;;13.90;82.10;;;;;;5085579;28;20487;-69
2022/05/22 03:32:49;;;;;;;26.33;24.93;;;13.80;82.40;;;;;;5081523;28;20465;-69
2022/05/22 03:35:16;;;;;;;27.63;26.00;;;13.80;82.10;;;;;;5093572;28;20478;-69
2022/05/22 03:37:45;;;;;;;26.23;24.83;;;13.80;82.10;;;;;;5088502;28;20464;-70
2022/05/22 03:40:14;;;;;;;26.53;25.03;;;13.80;82.20;;;;;;5074993;28;20950;-69
2022/05/22 03:42:41;;;;;;;26.27;24.70;;;13.90;81.60;;;;;;5084932;28;20454;-70
2022/05/22 03:45:10;;;;;;;26.93;25.33;;;13.90;81.90;;;;;;5076618;28;20589;-69
2022/05/22 03:47:38;;;;;;;27.23;25.63;;;13.90;81.70;;;;;;5080786;28;20490;-69
2022/05/22 03:50:07;;;;;;;27.13;25.53;;;14.00;80.70;;;;;;5068758;28;20471;-70
2022/05/22 03:52:35;;;;;;;27.70;26.20;;;14.00;80.90;;;;;;5074955;28;20536;-69
2022/05/22 03:55:04;;;;;;;26.83;25.23;;;14.00;80.60;;;;;;5087771;28;20474;-70
2022/05/22 03:57:31;;;;;;;26.90;25.50;;;14.10;80.20;;;;;;5085495;28;20977;-69
2022/05/22 03:59:58;;;;;;;26.00;24.50;;;14.10;80.60;;;;;;5075786;28;20984;-70
2022/05/22 04:02:25;;;;;;;27.20;25.80;;;14.10;80.50;;;;;;5084740;28;20461;-70
2022/05/22 04:04:52;;;;;;;26.70;25.20;;;14.20;79.90;;;;;;5079540;28;20482;-69
2022/05/22 04:07:19;;;;;;;25.90;24.47;;;14.30;79.50;;;;;;5076318;28;20493;-69
2022/05/22 04:09:46;;;;;;;25.87;24.47;;;14.40;79.10;;;;;;5071181;28;20485;-69
2022/05/22 04:12:15;;;;;;;27.10;25.60;;;14.50;79.00;;;;;;5070165;28;20454;-69
2022/05/22 04:14:42;;;;;;;26.37;24.97;;;14.60;78.80;;;;;;5073419;28;20493;-72
2022/05/22 04:17:09;;;;;;;27.37;25.77;;;14.70;78.60;;;;;;5082688;28;20474;-76
2022/05/22 04:19:38;;;;;;;27.20;25.70;;;14.90;78.10;;;;;;5074888;28;20493;-72
2022/05/22 04:22:05;;;;;;;26.53;24.93;;;14.90;77.50;;;;;;5078456;28;20458;-71
2022/05/22 04:27:18;;;;;;;26.17;24.73;;;14.90;78.00;;;;;;5079915;28;20453;-73
2022/05/22 04:29:45;;;;;;;27.37;25.87;;;14.90;77.50;;;;;;5072700;28;20481;-71
2022/05/22 04:32:12;;;;;;;26.73;25.27;;;15.00;77.50;;;;;;5077280;28;20459;-77
2022/05/22 04:34:39;;;;;;;26.90;25.50;;;15.00;77.20;;;;;;5068989;28;20480;-71
2022/05/22 04:37:06;;;;;;;26.90;25.50;;;15.00;77.00;;;;;;5077652;28;20459;-76
2022/05/22 04:39:33;;;;;;;27.60;25.87;;;15.00;77.00;;;;;;5068934;28;20449;-72
2022/05/22 04:42:00;;;;;;;25.73;24.33;;;15.10;77.10;;;;;;5079202;28;20459;-71
2022/05/22 04:44:28;;;;;;;25.83;24.43;;;15.20;76.80;;;;;;5078788;28;21148;-72
2022/05/22 04:46:55;;;;;;;27.33;25.83;;;15.30;76.70;;;;;;5084555;28;20445;-73
2022/05/22 04:49:22;;;;;;;27.80;26.30;;;15.40;76.40;;;;;;5070128;28;20482;-73
2022/05/22 04:51:49;;;;;;;26.90;25.30;;;15.40;76.00;;;;;;5070388;28;20517;-72
2022/05/22 04:54:16;;;;;;;26.60;25.10;;;15.50;75.70;;;;;;5075186;28;21010;-71
2022/05/22 04:56:43;;;;;;;27.60;26.10;;;15.50;75.50;;;;;;5069324;28;20457;-72
2022/05/22 04:59:10;;;;;;;26.27;24.80;;;15.50;75.60;;;;;;5081876;28;20442;-69
2022/05/22 05:01:39;;;;;;;26.50;25.00;;;15.60;75.40;;;;;;5079932;28;20819;-70
2022/05/22 05:04:06;;;;;;;27.10;25.60;;;15.60;75.00;;;;;;5079048;28;20490;-70
2022/05/22 05:06:33;;;;;;;26.97;25.47;;;15.70;74.90;;;;;;5088952;28;20461;-70
2022/05/22 05:09:00;;;;;;;26.70;25.23;;;15.70;75.10;;;;;;5071174;28;20486;-69
2022/05/22 05:11:27;;;;;;;26.97;25.40;;;15.70;75.30;;;;;;5076933;28;20504;-69
2022/05/22 05:13:54;;;;;;;26.73;25.23;;;15.80;75.30;;;;;;5079347;28;20454;-70
2022/05/22 05:16:22;;;;;;;26.90;25.40;;;15.90;75.40;;;;;;5076633;28;21018;-69
2022/05/22 05:18:50;;;;;;;26.77;25.20;;;16.00;74.90;;;;;;5071727;28;20458;-71
2022/05/22 05:21:18;;;;;;;27.90;26.30;;;16.10;74.70;;;;;;5076499;28;20445;-70
2022/05/22 05:23:45;;;;;;;27.10;25.60;;;16.20;74.50;;;;;;5080880;28;20465;-70
2022/05/22 05:26:12;;;;;;;27.90;26.30;;;16.30;74.30;;;;;;5087497;28;21060;-70
2022/05/22 05:28:40;;;;;;;26.70;25.20;;;16.40;73.90;;;;;;5073528;28;20493;-71
2022/05/22 05:31:07;;;;;;;26.27;24.87;;;16.40;73.80;;;;;;5076147;28;20479;-71
2022/05/22 05:33:34;;;;;;;27.83;25.83;;;16.60;73.70;;;;;;5070213;28;20670;-70
2022/05/22 05:36:03;;;;;;;26.70;25.10;;;16.70;73.10;;;;;;5079843;28;20560;-67
2022/05/22 05:38:30;;;;;;;30.00;28.27;;;16.80;72.90;;;;;;5084695;28;20457;-70
2022/05/22 05:40:57;;;;;;;28.43;26.73;;;16.80;72.70;;;;;;5078539;28;20465;-72
2022/05/22 05:43:24;;;;;;;28.00;26.00;;;16.90;72.60;;;;;;5078187;28;20453;-73
2022/05/22 05:45:51;;;;;;;27.20;25.60;;;16.90;72.80;;;;;;5085932;28;20488;-71
2022/05/22 05:48:18;;;;;;;26.80;25.20;;;17.00;72.50;;;;;;5085446;28;20458;-71
2022/05/22 05:50:45;;;;;;;26.10;24.70;;;17.20;72.20;;;;;;5086806;28;20478;-71
2022/05/22 05:53:13;;;;;;;26.60;25.00;;;17.30;71.60;;;;;;5086844;28;20466;-72
2022/05/22 05:55:40;;;;;;;27.40;25.70;;;17.30;71.60;;;;;;5100645;28;20470;-70
2022/05/22 05:58:07;;;;;;;26.90;25.20;;;17.40;71.60;;;;;;5074301;28;20546;-70
2022/05/22 06:00:34;;;;;;;26.20;24.80;;;17.50;71.00;;;;;;5069453;28;20458;-70
2022/05/22 06:03:01;;;;;;;25.97;24.57;;;17.70;70.20;;;;;;5078290;28;20458;-71
2022/05/22 06:05:28;;;;;;;26.37;24.87;;;17.70;70.20;;;;;;5071787;28;20477;-69
2022/05/22 06:07:55;;;;;;;27.03;25.40;;;17.70;70.40;;;;;;5080912;28;20545;-70
2022/05/22 06:10:24;;;;;;;27.90;26.00;;;17.80;70.20;;;;;;5069457;28;20473;-70
2022/05/22 06:12:50;;;;;;;28.40;26.80;;;17.90;69.50;;;;;;5080214;28;20949;-70
2022/05/22 06:15:18;;;;;;;28.50;25.80;;;18.00;68.80;;;;;;5069774;28;20477;-76
2022/05/22 06:17:47;;;;;;;27.60;25.93;;;18.10;68.40;;;;;;5084165;28;20977;-72
2022/05/22 06:20:17;;;;;;;26.67;25.17;;;18.20;68.30;;;;;;5081725;28;20458;-79
2022/05/22 06:22:47;;;;;;;25.50;24.10;;;18.20;67.50;;;;;;5084493;28;20984;-75
2022/05/22 06:25:17;;;;;;;25.67;24.17;;;18.30;67.80;;;;;;5074631;28;20835;-73
2022/05/22 06:27:46;;;;;;;26.15;24.35;;;18.40;67.50;;;;;;5083476;28;20465;-76
2022/05/22 06:30:15;;;;;;;26.80;25.20;;;18.70;65.90;;;;;;5080633;28;20767;-76
2022/05/22 06:32:43;;;;;;;25.97;24.47;;;18.70;65.60;;;;;;5085225;28;20457;-78
2022/05/22 06:35:12;;;;;;;25.70;24.07;;;18.90;65.60;;;;;;5077097;28;21123;-77
2022/05/22 06:37:39;;;;;;;26.23;24.70;;;19.00;65.50;;;;;;5093015;28;20459;-81
2022/05/22 06:40:08;;;;;;;26.27;24.77;;;19.20;64.90;;;;;;5080390;28;20461;-77
2022/05/22 06:42:38;;;;;;;25.60;24.17;;;19.40;64.20;;;;;;5078138;28;20959;-81
2022/05/22 06:45:09;;;;;;;26.23;24.70;;;19.30;64.00;;;;;;5089051;28;20489;-78
2022/05/22 06:47:38;;;;;;;25.80;24.30;;;19.40;63.30;;;;;;5089595;28;20556;-78
2022/05/22 06:50:08;;;;;;;25.60;24.20;;;19.50;63.70;;;;;;5075086;28;20477;-77
2022/05/22 06:52:35;;;;;;;27.50;25.90;;;19.60;63.30;;;;;;5084237;28;20901;-77
2022/05/22 06:55:03;;;;;;;25.60;24.10;;;19.70;63.30;;;;;;5076608;28;20545;-76
2022/05/22 06:57:30;;;;;;;25.33;23.83;;;19.80;62.90;;;;;;5083926;28;20450;-72
2022/05/22 06:59:59;;;;;;;26.03;24.33;;;20.00;62.30;;;;;;5081787;28;20464;-73
2022/05/22 07:02:30;;;;;;;26.83;25.23;;;20.00;62.20;;;;;;5089138;28;20460;-76
2022/05/22 07:04:59;;;;;;;26.03;24.63;;;19.90;62.10;;;;;;5084259;28;20482;-77
2022/05/22 07:07:26;;;;;;;29.00;27.10;;;20.10;62.00;;;;;;5088902;28;20506;-77
2022/05/22 07:09:53;;;;;;;28.00;26.20;;;20.10;61.90;;;;;;5087471;28;20478;-77
2022/05/22 07:12:20;;;;;;;29.10;27.50;;;20.30;61.00;;;;;;5087013;28;21037;-78
2022/05/22 07:14:48;;;;;;;26.00;24.30;;;20.50;60.80;;;;;;5078391;28;20558;-77
2022/05/22 07:17:21;;;;;;;27.37;25.67;;;20.50;60.50;;;;;;5088935;28;20514;-74
2022/05/22 07:19:49;;;;;;;28.10;26.50;;;20.40;60.00;;;;;;5084937;28;20537;-74
2022/05/22 07:22:17;;;;;;;26.83;25.23;;;20.30;60.20;;;;;;5105840;28;20449;-74
2022/05/22 07:24:44;;;;;;;28.90;27.10;;;20.40;60.40;;;;;;5079808;28;20547;-77
2022/05/22 07:27:15;;;;;;;33.77;31.40;;;20.50;60.30;;;;;;5087921;28;20460;-75
2022/05/22 07:29:42;;;;;;;32.60;30.20;;;20.80;60.10;;;;;;5084294;28;20472;-74
2022/05/22 07:32:11;;;;;;;26.93;25.37;;;20.90;59.40;;;;;;5086055;28;20464;-73
2022/05/22 07:34:40;;;;;;;26.73;25.23;;;21.10;58.80;;;;;;5086462;28;21253;-75
2022/05/22 07:37:10;;;;;;;26.50;25.00;;;21.20;58.20;;;;;;5090648;28;20481;-76
2022/05/22 07:39:38;;;;;;;26.07;24.57;;;21.20;58.00;;;;;;5088226;28;20545;-76
2022/05/22 07:42:06;;;;;;;28.67;26.93;;;21.20;58.20;;;;;;5086909;28;20466;-76
2022/05/22 07:44:34;;;;;;;26.03;24.50;;;21.30;58.00;;;;;;5079020;28;20481;-75
2022/05/22 07:47:01;;;;;;;26.93;25.27;;;21.30;57.80;;;;;;5083166;28;20445;-77
2022/05/22 07:52:14;;;;;;;25.47;24.07;;;21.30;57.90;;;;;;5086242;28;21422;-76
2022/05/22 07:54:42;;;;;;;25.90;24.30;;;21.40;57.40;;;;;;5078124;28;20473;-73
2022/05/22 07:57:09;;;;;;;25.77;23.97;;;21.50;57.10;;;;;;5087801;28;20852;-74
2022/05/22 07:59:38;;;;;;;24.53;23.17;;;21.40;57.10;;;;;;5080948;28;20878;-75
2022/05/22 08:02:07;;;;;;;25.23;23.53;;;21.30;57.10;;;;;;5075826;28;20501;-73
2022/05/22 08:04:34;;;;;;;25.50;23.83;;;21.10;57.60;;;;;;5094722;28;20569;-74
2022/05/22 08:07:01;;;;;;;26.60;24.80;;;20.90;58.10;;;;;;5084261;28;21151;-73
2022/05/22 08:09:32;;;;;;;26.23;24.63;;;21.00;58.20;;;;;;5081430;28;20470;-74
2022/05/22 08:11:59;;;;;;;25.90;24.50;;;21.00;58.60;;;;;;5082104;28;20474;-76
2022/05/22 08:14:26;;;;;;;25.10;23.80;;;21.10;58.50;;;;;;5080465;28;20481;-75
2022/05/22 08:16:54;;;;;;;25.53;24.13;;;21.30;57.60;;;;;;5089474;28;20462;-75
2022/05/22 08:19:21;;;;;;;24.37;23.07;;;21.40;56.90;;;;;;5084983;28;21430;-78
2022/05/22 08:21:48;;;;;;;25.20;23.70;;;21.40;56.80;;;;;;5081846;28;20450;-77
2022/05/22 08:24:15;;;;;;;25.40;23.90;;;21.50;56.80;;;;;;5078083;28;20460;-75
2022/05/22 08:26:43;;;;;;;25.37;23.97;;;21.60;56.70;;;;;;5085174;28;20460;-74
2022/05/22 08:29:10;;;;;;;26.47;24.70;;;21.80;56.40;;;;;;5081887;28;20489;-71
2022/05/22 08:31:37;;;;;;;26.20;24.60;;;21.80;56.60;;;;;;5073045;28;20489;-73
2022/05/22 08:34:04;;;;;;;26.40;24.83;;;21.80;56.50;;;;;;5086977;28;20471;-74
2022/05/22 08:36:31;;;;;;;26.13;24.73;;;21.70;56.50;;;;;;5080666;28;20493;-74
2022/05/22 08:38:57;;;;;;;26.23;24.73;;;21.80;57.00;;;;;;5078046;28;20494;-74
2022/05/22 08:41:32;;;;;;;27.17;25.50;;;21.70;57.30;;;;;;5087661;28;20459;-74
2022/05/22 08:44:09;;;;;;;26.57;24.97;;;21.70;57.10;;;;;;5089028;28;20821;-74
2022/05/22 08:46:53;;;;;;;27.83;26.17;;;21.80;57.00;;;;;;5085044;28;20839;-74
2022/05/22 08:49:23;;;;;;;28.40;26.90;;;21.90;57.10;;;;;;5088727;28;20469;-74
2022/05/22 08:51:54;;;;;;;27.40;25.80;;;21.70;57.20;;;;;;5085928;28;21002;-73
2022/05/22 08:54:28;;;;;;;26.70;25.30;;;21.80;57.10;;;;;;5077432;28;20469;-74
2022/05/22 08:59:47;;;;;;;26.57;25.07;;;22.00;56.50;;;;;;5093162;28;20523;-74
2022/05/22 09:02:29;;;;;;;26.87;24.97;;;22.20;55.90;;;;;;5079540;28;20452;-73
2022/05/22 09:05:02;;;;;;;25.87;24.27;;;22.10;56.20;;;;;;5082817;28;20989;-73
2022/05/22 09:07:39;;;;;;;26.57;25.07;;;22.10;56.40;;;;;;5099639;28;20461;-73
2022/05/22 09:10:08;;;;;;;25.87;24.33;;;22.10;56.50;;;;;;5102950;28;20474;-73
2022/05/22 09:13:07;;;;;;;26.67;25.03;;;22.10;56.80;;;;;;5083115;28;20540;-73
2022/05/22 09:15:44;;;;;;;26.60;24.90;;;22.20;56.20;;;;;;5092735;28;20487;-73
2022/05/22 09:18:19;;;;;;;25.23;23.73;;;22.20;56.00;;;;;;5097072;28;20454;-74
2022/05/22 09:20:53;;;;;;;25.23;23.83;;;22.30;56.60;;;;;;5105543;28;20943;-74
2022/05/22 09:23:33;;;;;;;25.60;24.20;;;22.60;55.90;;;;;;5083262;28;20469;-73
2022/05/22 09:26:07;;;;;;;26.00;24.50;;;22.70;55.00;;;;;;5094740;28;20484;-73
2022/05/22 09:28:46;;;;;;;26.07;24.67;;;22.60;54.60;;;;;;5077967;28;20858;-75
2022/05/22 09:31:23;;;;;;;27.57;26.17;;;22.60;54.90;;;;;;5076745;28;20553;-75
2022/05/22 09:33:59;;;;;;;26.83;25.23;;;22.70;54.20;;;;;;5099289;28;20460;-76
2022/05/22 09:36:38;;;;;;;26.10;24.40;;;22.90;54.00;;;;;;5107983;28;20456;-75
2022/05/22 09:39:15;;;;;;;26.73;24.93;;;22.80;54.00;;;;;;5093627;28;20528;-75
2022/05/22 09:41:55;;;;;;;27.03;25.00;;;22.80;53.40;;;;;;5080704;28;20951;-77
2022/05/22 09:44:43;;;;;;;31.23;29.63;;;22.70;53.20;;;;;;5083657;28;20995;-75
2022/05/22 09:47:26;;;;;;;31.00;29.23;;;22.70;53.30;;;;;;5081717;28;20457;-76
2022/05/22 09:50:13;;;;;;;25.90;24.40;;;22.60;53.80;;;;;;5090679;28;20922;-77
2022/05/22 09:52:49;;;;;;;26.83;25.20;;;22.70;53.70;;;;;;5088980;28;20454;-77
2022/05/22 09:55:37;;;;;;;25.90;24.50;;;22.60;54.00;;;;;;5091493;28;20483;-77
2022/05/22 09:58:20;;;;;;;26.70;25.00;;;22.90;53.40;;;;;;5090191;28;20504;-75
2022/05/22 10:00:52;;;;;;;28.27;26.47;;;23.00;53.20;;;;;;5085244;28;20477;-79
2022/05/22 10:03:30;;;;;;;26.30;24.60;;;23.10;52.60;;;;;;5076490;28;20533;-77
2022/05/22 10:06:06;;;;;;;26.47;24.73;;;23.10;52.70;;;;;;5080162;28;21001;-76
2022/05/22 10:08:46;;;;;;;26.40;24.90;;;23.00;52.90;;;;;;5096673;28;20468;-76
2022/05/22 10:11:20;;;;;;;26.20;24.70;;;23.10;52.90;;;;;;5108175;28;20483;-75
2022/05/22 10:14:07;;;;;;;28.13;26.50;;;23.20;52.20;;;;;;5097690;28;20458;-75
2022/05/22 10:16:45;;;;;;;27.77;26.07;;;23.40;52.40;;;;;;5093001;28;20450;-80
2022/05/22 10:19:28;;;;;;;25.73;24.23;;;23.40;51.70;;;;;;5072521;28;20447;-77
2022/05/22 10:22:05;;;;;;;26.40;24.90;;;23.50;51.70;;;;;;5080545;28;20465;-78
2022/05/22 10:24:45;;;;;;;27.57;26.00;;;23.30;51.40;;;;;;5097318;28;20488;-75
2022/05/22 10:27:40;;;;;;;26.97;25.37;;;23.50;50.90;;;;;;5097527;28;21151;-74
2022/05/22 10:30:11;;;;;;;26.80;25.20;;;23.50;51.30;;;;;;5091352;28;20805;-75
2022/05/22 10:32:43;;;;;;;27.90;26.20;;;23.50;51.20;;;;;;5089019;28;20484;-75
2022/05/22 10:35:18;;;;;;;28.83;26.50;;;23.60;50.70;;;;;;5086956;28;20586;-76
2022/05/22 10:37:50;;;;;;;26.40;24.73;;;23.80;50.20;;;;;;5098965;28;20461;-76
2022/05/22 10:40:19;;;;;;;26.07;24.53;;;23.70;50.30;;;;;;5086611;28;20899;-75
2022/05/22 10:42:51;;;;;;;26.17;24.57;;;23.70;50.00;;;;;;5085624;28;20828;-77
2022/05/22 10:45:23;;;;;;;27.57;25.97;;;23.70;50.20;;;;;;5090415;28;20474;-75
2022/05/22 10:47:52;;;;;;;27.30;25.80;;;23.50;50.60;;;;;;5090007;28;20485;-77
2022/05/22 10:50:26;;;;;;;27.40;25.90;;;23.50;50.50;;;;;;5099011;28;20511;-75
2022/05/22 10:52:54;;;;;;;27.27;25.53;;;23.60;50.80;;;;;;5082611;28;20494;-78
2022/05/22 10:55:33;;;;;;;28.20;26.50;;;23.90;50.70;;;;;;5090699;28;20578;-76
2022/05/22 10:58:02;;;;;;;29.20;27.60;;;24.00;49.30;;;;;;5074296;28;20495;-75
2022/05/22 11:00:30;;;;;;;26.53;24.93;;;23.80;49.50;;;;;;5073499;28;20654;-74
2022/05/22 11:02:56;;;;;;;26.80;25.20;;;23.90;50.10;;;;;;5074869;28;20458;-79
2022/05/22 11:05:28;;;;;;;27.43;25.93;;;23.90;50.10;;;;;;5080930;28;20479;-76
2022/05/22 11:07:56;;;;;;;25.83;24.30;;;23.90;50.20;;;;;;5080422;28;20454;-77
2022/05/22 11:10:26;;;;;;;27.10;25.37;;;24.00;49.80;;;;;;5081514;28;20491;-77
2022/05/22 11:13:03;;;;;;;28.37;26.77;;;23.90;50.00;;;;;;5077190;28;20536;-77
2022/05/22 11:15:32;;;;;;;26.60;24.90;;;24.00;49.90;;;;;;5088339;28;20482;-78
2022/05/22 11:18:04;;;;;;;26.40;24.90;;;24.10;49.50;;;;;;5088935;28;20456;-78
2022/05/22 11:20:33;;;;;;;27.90;26.10;;;24.20;49.30;;;;;;5085943;28;20456;-79
2022/05/22 11:23:09;;;;;;;29.00;27.30;;;24.40;48.80;;;;;;5088251;28;20460;-77
2022/05/22 11:25:47;;;;;;;27.50;26.00;;;24.80;48.40;;;;;;5090675;28;20507;-77
2022/05/22 11:28:43;;;;;;;27.43;25.63;;;24.70;48.70;;;;;;5099453;28;20442;-77
2022/05/22 11:31:27;;;;;;;28.63;26.93;;;24.70;48.80;;;;;;5080490;28;20477;-78
2022/05/22 11:34:08;;;;;;;27.63;25.83;;;24.70;48.20;;;;;;5075757;28;20482;-79
2022/05/22 11:36:50;;;;;;;27.70;25.80;;;24.70;48.70;;;;;;5087635;28;20547;-76
2022/05/22 11:39:36;;;;;;;27.80;26.00;;;24.70;48.50;;;;;;5086580;28;20470;-77
2022/05/22 11:42:12;;;;;;;27.43;25.83;;;24.80;48.20;;;;;;5099771;28;20485;-76
2022/05/22 11:44:51;;;;;;;27.03;25.53;;;25.00;48.20;;;;;;5085870;28;21170;-77
2022/05/22 11:47:32;;;;;;;27.93;26.23;;;25.00;47.80;;;;;;5084364;28;20468;-75
2022/05/22 11:50:08;;;;;;;27.77;26.07;;;25.00;48.00;;;;;;5083270;28;20464;-74
2022/05/22 11:52:56;;;;;;;27.80;26.00;;;24.80;48.20;;;;;;5081593;28;20559;-75
2022/05/22 11:55:32;;;;;;;28.77;27.07;;;24.80;48.40;;;;;;5087960;28;20562;-76
2022/05/22 11:58:17;;;;;;;27.70;26.20;;;24.80;48.00;;;;;;5081951;27;20464;-75
2022/05/22 12:00:53;;;;;;;27.13;25.63;;;25.10;47.30;;;;;;5076200;28;20454;-76
2022/05/22 12:03:46;;;;;;;30.57;28.40;;;25.10;47.50;;;;;;5082934;28;20456;-77
2022/05/22 12:06:24;;;;;;;28.30;26.60;;;25.00;47.00;;;;;;5087281;28;21047;-81
2022/05/22 12:09:06;;;;;;;30.50;28.70;;;24.80;47.80;;;;;;5092119;28;20489;-77
2022/05/22 12:11:46;;;;;;;28.87;27.00;;;24.80;47.80;;;;;;5095251;28;20579;-77
2022/05/22 12:14:22;;;;;;;29.40;27.60;;;25.10;47.90;;;;;;5090937;28;20527;-77
2022/05/22 12:16:58;;;;;;;28.23;26.63;;;25.50;47.50;;;;;;5089153;28;20542;-78
2022/05/22 12:19:36;;;;;;;28.17;26.57;;;25.80;46.40;;;;;;5077996;28;20458;-76
2022/05/22 12:22:13;;;;;;;27.80;26.20;;;26.10;45.80;;;;;;5092128;28;20453;-77
2022/05/22 12:24:48;;;;;;;30.37;28.37;;;25.90;45.50;;;;;;5073452;28;20481;-76
2022/05/22 12:27:24;;;;;;;27.87;26.17;;;25.70;46.20;;;;;;5089675;28;20488;-77
2022/05/22 12:30:02;;;;;;;28.47;26.87;;;25.80;45.50;;;;;;5081547;28;20844;-79
2022/05/22 12:32:31;;;;;;;27.77;26.17;;;25.90;45.30;;;;;;5082045;28;20468;-77
2022/05/22 12:35:01;;;;;;;27.27;25.77;;;25.60;45.90;;;;;;5080346;28;20481;-79
2022/05/22 12:37:33;;;;;;;27.73;25.97;;;25.50;45.90;;;;;;5079805;28;20466;-76
2022/05/22 12:40:17;;;;;;;27.87;26.17;;;25.50;46.40;;;;;;5081684;28;20458;-75
2022/05/22 12:42:50;;;;;;;27.93;26.10;;;25.70;46.00;;;;;;5082892;28;20451;-74
2022/05/22 12:45:18;;;;;;;30.47;28.40;;;26.00;46.10;;;;;;5076677;28;20492;-74
2022/05/22 12:47:47;;;;;;;28.40;26.80;;;26.30;45.20;;;;;;5075877;28;20559;-74
2022/05/22 12:50:26;;;;;;;28.60;26.90;;;26.40;45.10;;;;;;5080228;28;20578;-74
2022/05/22 12:52:54;;;;;;;27.70;25.80;;;26.60;44.30;;;;;;5083223;28;20481;-75